首页
METAR-TAF:

METAR-TAF

机场 :

伦敦Biggin Hill, 英格兰

纬度: 51-19N, 经度: 000-02E, 海拔: 183米

当前天气观测

该预报发布于24分钟前的18:50 UTC
风速14节,风向西南,有时为25节阵风
温度 7°C
湿度 81%
气压 1015 hPa
能見度: 6000
散云层高于2000英尺
阵雨

METAR: EGKB 181850Z 22014G25KT 6000 SHRA SCT020 07/04 Q1015

时间: 19:14 (19:14 UTC)

预报

该预报发布于2小时和13分钟前的17:01 UTC
预报有效从18日的 18点(UTC)到 18日的 23点(UTC)
风速16节,风向西南
能见度10公里或以上
少量云层高于2500英尺
短暂存在
从 18日的 18点(UTC)到 18日的 22点(UTC)
风速20节,风向西转西南,有时为35节阵风
能見度: 4000
多云层高于900英尺, 积雨云.
大阵雨
成为
从 18日的 21点(UTC)到 18日的 23点(UTC)
风速12节,风向西转西北

TAF: EGKB 181701Z 1818/1823 22016KT 9999 FEW025 TEMPO 1818/1822 24020G35KT 4000 +SHRA BKN009CB BECMG 1821/1823 29012KT

超过4000个机场的气象观测和天气预报(METAR&TAF报告)。

可查询的气象台以黄色和红色小点在地图上表示。

将鼠标移到小点上方,可查看气象台名称。

然后点击查看天气观测和预报。

如需切换地图:点击带黑十字的绿色按钮放大地图;点击带横线的绿色按钮缩小地图;或者点击绿色箭头查看邻近地区的地图。


METAR-TAF: